sensor_id;sensor_type;location;lat;lon;timestamp;P1;durP1;ratioP1;P2;durP2;ratioP2
31282;SDS011;17915;52.540;13.604;2023-03-07T00:01:03;13.88;;;7.72;;
31282;SDS011;17915;52.540;13.604;2023-03-07T00:03:29;13.37;;;9.70;;
31282;SDS011;17915;52.540;13.604;2023-03-07T00:06:07;15.70;;;9.07;;
31282;SDS011;17915;52.540;13.604;2023-03-07T00:08:34;12.05;;;9.10;;
31282;SDS011;17915;52.540;13.604;2023-03-07T00:11:00;14.48;;;8.70;;
31282;SDS011;17915;52.540;13.604;2023-03-07T00:13:27;15.18;;;8.75;;
31282;SDS011;17915;52.540;13.604;2023-03-07T00:15:54;15.63;;;9.02;;
31282;SDS011;17915;52.540;13.604;2023-03-07T00:18:19;14.00;;;8.37;;
31282;SDS011;17915;52.540;13.604;2023-03-07T00:20:45;12.70;;;8.30;;
31282;SDS011;17915;52.540;13.604;2023-03-07T00:23:20;19.33;;;10.05;;
31282;SDS011;17915;52.540;13.604;2023-03-07T00:25:54;15.73;;;8.20;;
31282;SDS011;17915;52.540;13.604;2023-03-07T00:28:20;15.73;;;10.10;;
31282;SDS011;17915;52.540;13.604;2023-03-07T00:30:46;14.60;;;9.47;;
31282;SDS011;17915;52.540;13.604;2023-03-07T00:33:11;11.03;;;7.93;;
31282;SDS011;17915;52.540;13.604;2023-03-07T00:35:36;16.23;;;9.43;;
31282;SDS011;17915;52.540;13.604;2023-03-07T00:38:02;13.27;;;9.33;;
31282;SDS011;17915;52.540;13.604;2023-03-07T00:40:27;14.97;;;9.10;;
31282;SDS011;17915;52.540;13.604;2023-03-07T00:42:52;16.67;;;9.67;;
31282;SDS011;17915;52.540;13.604;2023-03-07T00:45:18;12.98;;;8.82;;
31282;SDS011;17915;52.540;13.604;2023-03-07T00:47:43;18.27;;;10.80;;
31282;SDS011;17915;52.540;13.604;2023-03-07T00:50:09;15.07;;;9.53;;
31282;SDS011;17915;52.540;13.604;2023-03-07T00:52:34;13.23;;;8.73;;
31282;SDS011;17915;52.540;13.604;2023-03-07T00:55:00;16.47;;;8.03;;
31282;SDS011;17915;52.540;13.604;2023-03-07T00:57:25;16.00;;;8.80;;
31282;SDS011;17915;52.540;13.604;2023-03-07T00:59:50;11.90;;;8.70;;
31282;SDS011;17915;52.540;13.604;2023-03-07T01:02:16;11.80;;;8.17;;
31282;SDS011;17915;52.540;13.604;2023-03-07T01:04:41;14.40;;;8.73;;
31282;SDS011;17915;52.540;13.604;2023-03-07T01:07:06;15.30;;;9.27;;
31282;SDS011;17915;52.540;13.604;2023-03-07T01:09:32;17.63;;;8.93;;
31282;SDS011;17915;52.540;13.604;2023-03-07T01:11:57;14.07;;;9.00;;
31282;SDS011;17915;52.540;13.604;2023-03-07T01:14:23;16.67;;;9.87;;
31282;SDS011;17915;52.540;13.604;2023-03-07T01:16:48;16.27;;;9.47;;
31282;SDS011;17915;52.540;13.604;2023-03-07T01:19:13;18.50;;;8.90;;
31282;SDS011;17915;52.540;13.604;2023-03-07T01:21:39;16.23;;;9.60;;
31282;SDS011;17915;52.540;13.604;2023-03-07T01:24:07;17.45;;;10.77;;
31282;SDS011;17915;52.540;13.604;2023-03-07T01:26:34;14.52;;;8.95;;
31282;SDS011;17915;52.540;13.604;2023-03-07T01:29:00;19.93;;;11.37;;
31282;SDS011;17915;52.540;13.604;2023-03-07T01:31:27;18.30;;;10.73;;
31282;SDS011;17915;52.540;13.604;2023-03-07T01:33:54;19.85;;;10.15;;
31282;SDS011;17915;52.540;13.604;2023-03-07T01:36:24;21.30;;;12.18;;
31282;SDS011;17915;52.540;13.604;2023-03-07T01:38:55;17.30;;;10.57;;
31282;SDS011;17915;52.540;13.604;2023-03-07T01:41:22;22.58;;;12.50;;
31282;SDS011;17915;52.540;13.604;2023-03-07T01:43:49;25.42;;;13.90;;
31282;SDS011;17915;52.540;13.604;2023-03-07T01:51:12;27.63;;;12.77;;
31282;SDS011;17915;52.540;13.604;2023-03-07T01:53:38;26.47;;;12.53;;
31282;SDS011;17915;52.540;13.604;2023-03-07T01:56:04;26.75;;;13.30;;
31282;SDS011;17915;52.540;13.604;2023-03-07T01:58:30;27.05;;;13.60;;
31282;SDS011;17915;52.540;13.604;2023-03-07T02:00:55;21.67;;;13.60;;
31282;SDS011;17915;52.540;13.604;2023-03-07T02:03:25;22.77;;;13.60;;
31282;SDS011;17915;52.540;13.604;2023-03-07T02:06:22;25.58;;;13.68;;
31282;SDS011;17915;52.540;13.604;2023-03-07T02:08:48;24.60;;;14.10;;
31282;SDS011;17915;52.540;13.604;2023-03-07T02:11:15;22.92;;;12.75;;
31282;SDS011;17915;52.540;13.604;2023-03-07T02:13:41;26.10;;;12.93;;
31282;SDS011;17915;52.540;13.604;2023-03-07T02:16:06;25.83;;;14.87;;
31282;SDS011;17915;52.540;13.604;2023-03-07T02:18:32;23.13;;;12.73;;
31282;SDS011;17915;52.540;13.604;2023-03-07T02:21:18;20.67;;;13.60;;
31282;SDS011;17915;52.540;13.604;2023-03-07T02:26:42;25.58;;;14.13;;
31282;SDS011;17915;52.540;13.604;2023-03-07T02:29:08;30.35;;;16.05;;
31282;SDS011;17915;52.540;13.604;2023-03-07T02:31:34;29.08;;;15.75;;
31282;SDS011;17915;52.540;13.604;2023-03-07T02:33:59;25.27;;;13.40;;
31282;SDS011;17915;52.540;13.604;2023-03-07T02:36:29;34.45;;;17.77;;
31282;SDS011;17915;52.540;13.604;2023-03-07T02:38:56;34.25;;;16.70;;
31282;SDS011;17915;52.540;13.604;2023-03-07T02:41:24;31.20;;;14.98;;
31282;SDS011;17915;52.540;13.604;2023-03-07T02:43:52;33.83;;;19.00;;
31282;SDS011;17915;52.540;13.604;2023-03-07T02:46:18;32.07;;;15.77;;
31282;SDS011;17915;52.540;13.604;2023-03-07T02:48:44;36.45;;;17.88;;
31282;SDS011;17915;52.540;13.604;2023-03-07T02:51:10;38.38;;;18.63;;
31282;SDS011;17915;52.540;13.604;2023-03-07T02:53:36;33.58;;;17.98;;
31282;SDS011;17915;52.540;13.604;2023-03-07T02:56:01;38.50;;;18.50;;
31282;SDS011;17915;52.540;13.604;2023-03-07T02:58:27;37.13;;;17.85;;
31282;SDS011;17915;52.540;13.604;2023-03-07T03:00:53;36.07;;;17.53;;
31282;SDS011;17915;52.540;13.604;2023-03-07T03:03:18;35.60;;;19.27;;
31282;SDS011;17915;52.540;13.604;2023-03-07T03:05:43;42.37;;;19.67;;
31282;SDS011;17915;52.540;13.604;2023-03-07T03:08:09;39.90;;;20.00;;
31282;SDS011;17915;52.540;13.604;2023-03-07T03:10:34;36.23;;;19.07;;
31282;SDS011;17915;52.540;13.604;2023-03-07T03:13:00;40.30;;;19.87;;
31282;SDS011;17915;52.540;13.604;2023-03-07T03:15:25;39.10;;;18.27;;
31282;SDS011;17915;52.540;13.604;2023-03-07T03:17:52;38.87;;;19.27;;
31282;SDS011;17915;52.540;13.604;2023-03-07T03:20:17;39.40;;;20.35;;
31282;SDS011;17915;52.540;13.604;2023-03-07T03:22:43;38.03;;;18.37;;
31282;SDS011;17915;52.540;13.604;2023-03-07T03:25:09;38.83;;;20.37;;
31282;SDS011;17915;52.540;13.604;2023-03-07T03:27:36;43.25;;;19.75;;
31282;SDS011;17915;52.540;13.604;2023-03-07T03:30:03;45.75;;;21.45;;
31282;SDS011;17915;52.540;13.604;2023-03-07T03:32:30;39.33;;;18.10;;
31282;SDS011;17915;52.540;13.604;2023-03-07T03:34:55;40.35;;;20.25;;
31282;SDS011;17915;52.540;13.604;2023-03-07T03:37:21;40.57;;;20.70;;
31282;SDS011;17915;52.540;13.604;2023-03-07T03:39:46;39.80;;;19.93;;
31282;SDS011;17915;52.540;13.604;2023-03-07T03:42:12;36.80;;;19.63;;
31282;SDS011;17915;52.540;13.604;2023-03-07T03:44:37;42.20;;;20.37;;
31282;SDS011;17915;52.540;13.604;2023-03-07T03:47:03;39.57;;;19.80;;
31282;SDS011;17915;52.540;13.604;2023-03-07T03:49:28;38.00;;;18.65;;
31282;SDS011;17915;52.540;13.604;2023-03-07T03:51:54;41.37;;;20.90;;
31282;SDS011;17915;52.540;13.604;2023-03-07T03:54:19;38.70;;;19.43;;
31282;SDS011;17915;52.540;13.604;2023-03-07T03:56:45;42.27;;;21.17;;
31282;SDS011;17915;52.540;13.604;2023-03-07T03:59:10;43.13;;;19.87;;
31282;SDS011;17915;52.540;13.604;2023-03-07T04:01:35;40.40;;;19.53;;
31282;SDS011;17915;52.540;13.604;2023-03-07T04:04:01;44.27;;;18.53;;
31282;SDS011;17915;52.540;13.604;2023-03-07T04:06:27;39.97;;;20.53;;
31282;SDS011;17915;52.540;13.604;2023-03-07T04:08:54;41.80;;;20.77;;
31282;SDS011;17915;52.540;13.604;2023-03-07T04:11:21;44.17;;;21.88;;
31282;SDS011;17915;52.540;13.604;2023-03-07T04:13:47;55.70;;;23.25;;
31282;SDS011;17915;52.540;13.604;2023-03-07T04:16:12;42.20;;;20.43;;
31282;SDS011;17915;52.540;13.604;2023-03-07T04:18:38;43.22;;;20.63;;
31282;SDS011;17915;52.540;13.604;2023-03-07T04:21:04;42.63;;;20.85;;
31282;SDS011;17915;52.540;13.604;2023-03-07T04:23:30;38.45;;;23.10;;
31282;SDS011;17915;52.540;13.604;2023-03-07T04:25:56;42.08;;;20.42;;
31282;SDS011;17915;52.540;13.604;2023-03-07T04:28:24;43.03;;;21.05;;
31282;SDS011;17915;52.540;13.604;2023-03-07T04:31:13;38.13;;;20.65;;
31282;SDS011;17915;52.540;13.604;2023-03-07T04:33:40;40.22;;;18.73;;
31282;SDS011;17915;52.540;13.604;2023-03-07T04:36:05;40.50;;;19.83;;
31282;SDS011;17915;52.540;13.604;2023-03-07T04:38:31;42.25;;;20.08;;
31282;SDS011;17915;52.540;13.604;2023-03-07T04:40:57;36.83;;;18.23;;
31282;SDS011;17915;52.540;13.604;2023-03-07T04:43:22;37.17;;;19.07;;
31282;SDS011;17915;52.540;13.604;2023-03-07T04:45:48;42.00;;;18.73;;
31282;SDS011;17915;52.540;13.604;2023-03-07T04:48:13;35.80;;;16.87;;
31282;SDS011;17915;52.540;13.604;2023-03-07T04:50:39;38.13;;;19.67;;
31282;SDS011;17915;52.540;13.604;2023-03-07T04:53:04;33.73;;;17.80;;
31282;SDS011;17915;52.540;13.604;2023-03-07T04:55:30;37.53;;;17.97;;
31282;SDS011;17915;52.540;13.604;2023-03-07T04:57:55;35.03;;;17.13;;
31282;SDS011;17915;52.540;13.604;2023-03-07T05:00:22;33.70;;;18.20;;
31282;SDS011;17915;52.540;13.604;2023-03-07T05:02:48;37.28;;;17.77;;
31282;SDS011;17915;52.540;13.604;2023-03-07T05:05:14;33.33;;;15.98;;
31282;SDS011;17915;52.540;13.604;2023-03-07T05:07:40;32.63;;;17.30;;
31282;SDS011;17915;52.540;13.604;2023-03-07T05:10:05;34.63;;;18.40;;
31282;SDS011;17915;52.540;13.604;2023-03-07T05:12:31;34.15;;;19.20;;
31282;SDS011;17915;52.540;13.604;2023-03-07T05:14:57;40.83;;;19.07;;
31282;SDS011;17915;52.540;13.604;2023-03-07T05:17:22;39.03;;;19.43;;
31282;SDS011;17915;52.540;13.604;2023-03-07T05:19:47;37.97;;;20.10;;
31282;SDS011;17915;52.540;13.604;2023-03-07T05:22:13;39.13;;;19.67;;
31282;SDS011;17915;52.540;13.604;2023-03-07T05:24:38;37.47;;;19.20;;
31282;SDS011;17915;52.540;13.604;2023-03-07T05:27:04;35.20;;;16.83;;
31282;SDS011;17915;52.540;13.604;2023-03-07T05:29:29;35.43;;;17.67;;
31282;SDS011;17915;52.540;13.604;2023-03-07T05:31:54;33.87;;;16.73;;
31282;SDS011;17915;52.540;13.604;2023-03-07T05:34:20;36.40;;;18.80;;
31282;SDS011;17915;52.540;13.604;2023-03-07T05:36:45;31.60;;;16.93;;
31282;SDS011;17915;52.540;13.604;2023-03-07T05:39:12;38.50;;;17.83;;
31282;SDS011;17915;52.540;13.604;2023-03-07T05:41:39;41.78;;;18.88;;
31282;SDS011;17915;52.540;13.604;2023-03-07T05:44:04;31.27;;;16.40;;
31282;SDS011;17915;52.540;13.604;2023-03-07T05:46:30;33.53;;;16.93;;
31282;SDS011;17915;52.540;13.604;2023-03-07T05:48:55;37.03;;;19.73;;
31282;SDS011;17915;52.540;13.604;2023-03-07T05:51:21;44.70;;;20.03;;
31282;SDS011;17915;52.540;13.604;2023-03-07T05:53:46;37.47;;;18.40;;
31282;SDS011;17915;52.540;13.604;2023-03-07T05:56:12;34.00;;;18.70;;
31282;SDS011;17915;52.540;13.604;2023-03-07T05:58:38;36.47;;;17.83;;
31282;SDS011;17915;52.540;13.604;2023-03-07T06:01:03;30.47;;;16.57;;
31282;SDS011;17915;52.540;13.604;2023-03-07T06:03:29;36.58;;;19.77;;
31282;SDS011;17915;52.540;13.604;2023-03-07T06:05:55;34.67;;;17.80;;
31282;SDS011;17915;52.540;13.604;2023-03-07T06:08:20;37.13;;;18.97;;
31282;SDS011;17915;52.540;13.604;2023-03-07T06:10:50;38.23;;;18.40;;
31282;SDS011;17915;52.540;13.604;2023-03-07T06:13:22;36.85;;;19.75;;
31282;SDS011;17915;52.540;13.604;2023-03-07T06:15:48;32.25;;;19.60;;
31282;SDS011;17915;52.540;13.604;2023-03-07T06:18:18;33.78;;;17.38;;
31282;SDS011;17915;52.540;13.604;2023-03-07T06:20:43;32.47;;;18.67;;
31282;SDS011;17915;52.540;13.604;2023-03-07T06:23:09;34.13;;;17.53;;
31282;SDS011;17915;52.540;13.604;2023-03-07T06:25:34;39.37;;;21.87;;
31282;SDS011;17915;52.540;13.604;2023-03-07T06:28:00;45.25;;;20.23;;
31282;SDS011;17915;52.540;13.604;2023-03-07T06:30:26;30.87;;;16.67;;
31282;SDS011;17915;52.540;13.604;2023-03-07T06:32:52;31.50;;;17.73;;
31282;SDS011;17915;52.540;13.604;2023-03-07T06:35:17;39.57;;;20.10;;
31282;SDS011;17915;52.540;13.604;2023-03-07T06:37:43;40.10;;;17.90;;
31282;SDS011;17915;52.540;13.604;2023-03-07T06:40:08;34.27;;;17.43;;
31282;SDS011;17915;52.540;13.604;2023-03-07T06:42:35;40.28;;;18.90;;
31282;SDS011;17915;52.540;13.604;2023-03-07T06:45:00;32.60;;;17.63;;
31282;SDS011;17915;52.540;13.604;2023-03-07T06:47:26;33.03;;;17.35;;
31282;SDS011;17915;52.540;13.604;2023-03-07T06:49:51;31.33;;;17.87;;
31282;SDS011;17915;52.540;13.604;2023-03-07T06:52:17;29.07;;;17.83;;
31282;SDS011;17915;52.540;13.604;2023-03-07T06:54:43;31.35;;;16.13;;
31282;SDS011;17915;52.540;13.604;2023-03-07T06:57:08;31.57;;;18.40;;
31282;SDS011;17915;52.540;13.604;2023-03-07T06:59:33;35.23;;;18.37;;
31282;SDS011;17915;52.540;13.604;2023-03-07T07:02:02;33.60;;;16.27;;
31282;SDS011;17915;52.540;13.604;2023-03-07T07:04:27;39.85;;;18.02;;
31282;SDS011;17915;52.540;13.604;2023-03-07T07:06:53;33.57;;;17.40;;
31282;SDS011;17915;52.540;13.604;2023-03-07T07:09:18;37.53;;;17.50;;
31282;SDS011;17915;52.540;13.604;2023-03-07T07:11:44;27.50;;;16.43;;
31282;SDS011;17915;52.540;13.604;2023-03-07T07:14:09;37.37;;;17.60;;
31282;SDS011;17915;52.540;13.604;2023-03-07T07:16:34;30.63;;;16.50;;
31282;SDS011;17915;52.540;13.604;2023-03-07T07:19:00;27.07;;;15.80;;
31282;SDS011;17915;52.540;13.604;2023-03-07T07:21:25;34.10;;;16.97;;
31282;SDS011;17915;52.540;13.604;2023-03-07T07:23:51;36.97;;;16.30;;
31282;SDS011;17915;52.540;13.604;2023-03-07T07:26:16;28.43;;;16.37;;
31282;SDS011;17915;52.540;13.604;2023-03-07T07:28:42;22.23;;;14.30;;
31282;SDS011;17915;52.540;13.604;2023-03-07T07:31:07;33.20;;;15.73;;
31282;SDS011;17915;52.540;13.604;2023-03-07T07:33:32;31.77;;;15.17;;
31282;SDS011;17915;52.540;13.604;2023-03-07T07:35:58;28.67;;;14.63;;
31282;SDS011;17915;52.540;13.604;2023-03-07T07:38:23;26.47;;;15.60;;
31282;SDS011;17915;52.540;13.604;2023-03-07T07:40:49;24.10;;;14.70;;
31282;SDS011;17915;52.540;13.604;2023-03-07T07:43:15;30.80;;;15.80;;
31282;SDS011;17915;52.540;13.604;2023-03-07T07:45:41;25.92;;;14.68;;
31282;SDS011;17915;52.540;13.604;2023-03-07T07:48:06;24.70;;;13.87;;
31282;SDS011;17915;52.540;13.604;2023-03-07T07:50:32;25.10;;;14.07;;
31282;SDS011;17915;52.540;13.604;2023-03-07T07:52:57;26.03;;;13.27;;
31282;SDS011;17915;52.540;13.604;2023-03-07T07:55:23;20.23;;;12.77;;
31282;SDS011;17915;52.540;13.604;2023-03-07T07:57:49;24.85;;;13.45;;
31282;SDS011;17915;52.540;13.604;2023-03-07T08:00:15;26.17;;;14.75;;
31282;SDS011;17915;52.540;13.604;2023-03-07T08:02:45;23.05;;;13.77;;
31282;SDS011;17915;52.540;13.604;2023-03-07T08:05:14;22.30;;;12.77;;
31282;SDS011;17915;52.540;13.604;2023-03-07T08:07:41;24.38;;;14.43;;
31282;SDS011;17915;52.540;13.604;2023-03-07T08:10:07;33.30;;;14.20;;
31282;SDS011;17915;52.540;13.604;2023-03-07T08:12:33;22.38;;;12.38;;
31282;SDS011;17915;52.540;13.604;2023-03-07T08:14:59;21.97;;;12.50;;
31282;SDS011;17915;52.540;13.604;2023-03-07T08:17:24;26.80;;;13.87;;
31282;SDS011;17915;52.540;13.604;2023-03-07T08:19:49;29.87;;;14.90;;
31282;SDS011;17915;52.540;13.604;2023-03-07T08:22:15;25.00;;;14.73;;
31282;SDS011;17915;52.540;13.604;2023-03-07T08:24:41;19.53;;;12.50;;
31282;SDS011;17915;52.540;13.604;2023-03-07T08:27:06;20.83;;;12.73;;
31282;SDS011;17915;52.540;13.604;2023-03-07T08:29:32;23.75;;;12.65;;
31282;SDS011;17915;52.540;13.604;2023-03-07T08:34:24;24.73;;;14.82;;
31282;SDS011;17915;52.540;13.604;2023-03-07T08:36:50;21.27;;;12.70;;
31282;SDS011;17915;52.540;13.604;2023-03-07T08:39:16;22.73;;;12.98;;
31282;SDS011;17915;52.540;13.604;2023-03-07T08:41:42;17.93;;;11.03;;
31282;SDS011;17915;52.540;13.604;2023-03-07T08:44:07;21.47;;;13.47;;
31282;SDS011;17915;52.540;13.604;2023-03-07T08:46:33;26.55;;;13.82;;
31282;SDS011;17915;52.540;13.604;2023-03-07T08:48:59;26.07;;;12.47;;
31282;SDS011;17915;52.540;13.604;2023-03-07T08:51:24;32.40;;;13.63;;
31282;SDS011;17915;52.540;13.604;2023-03-07T08:53:50;32.27;;;14.87;;
31282;SDS011;17915;52.540;13.604;2023-03-07T08:56:16;21.03;;;12.47;;
31282;SDS011;17915;52.540;13.604;2023-03-07T08:58:42;17.20;;;13.10;;
31282;SDS011;17915;52.540;13.604;2023-03-07T09:01:08;21.80;;;13.13;;
31282;SDS011;17915;52.540;13.604;2023-03-07T09:03:34;17.90;;;11.30;;
31282;SDS011;17915;52.540;13.604;2023-03-07T09:06:01;21.13;;;12.35;;
31282;SDS011;17915;52.540;13.604;2023-03-07T09:08:26;20.23;;;12.25;;
31282;SDS011;17915;52.540;13.604;2023-03-07T09:10:52;17.70;;;12.30;;
31282;SDS011;17915;52.540;13.604;2023-03-07T09:13:17;24.70;;;12.33;;
31282;SDS011;17915;52.540;13.604;2023-03-07T09:15:43;16.23;;;12.10;;
31282;SDS011;17915;52.540;13.604;2023-03-07T09:18:08;21.50;;;12.43;;
31282;SDS011;17915;52.540;13.604;2023-03-07T09:20:36;17.13;;;10.25;;
31282;SDS011;17915;52.540;13.604;2023-03-07T09:23:02;18.23;;;11.43;;
31282;SDS011;17915;52.540;13.604;2023-03-07T09:25:27;16.07;;;10.23;;
31282;SDS011;17915;52.540;13.604;2023-03-07T09:27:53;17.27;;;9.93;;
31282;SDS011;17915;52.540;13.604;2023-03-07T09:30:18;14.23;;;9.10;;
31282;SDS011;17915;52.540;13.604;2023-03-07T09:32:44;13.87;;;9.87;;
31282;SDS011;17915;52.540;13.604;2023-03-07T09:35:10;11.38;;;8.40;;
31282;SDS011;17915;52.540;13.604;2023-03-07T09:37:35;12.60;;;9.57;;
31282;SDS011;17915;52.540;13.604;2023-03-07T09:40:02;14.60;;;9.03;;
31282;SDS011;17915;52.540;13.604;2023-03-07T09:45:15;18.77;;;9.48;;
31282;SDS011;17915;52.540;13.604;2023-03-07T09:53:33;9.40;;;7.25;;
31282;SDS011;17915;52.540;13.604;2023-03-07T09:56:01;15.13;;;8.93;;
31282;SDS011;17915;52.540;13.604;2023-03-07T09:58:29;14.98;;;7.95;;
31282;SDS011;17915;52.540;13.604;2023-03-07T10:00:56;12.50;;;7.23;;
31282;SDS011;17915;52.540;13.604;2023-03-07T10:03:31;10.77;;;7.18;;
31282;SDS011;17915;52.540;13.604;2023-03-07T10:06:33;14.73;;;7.32;;
31282;SDS011;17915;52.540;13.604;2023-03-07T10:08:57;8.15;;;6.28;;
31282;SDS011;17915;52.540;13.604;2023-03-07T10:20:12;6.82;;;6.13;;
31282;SDS011;17915;52.540;13.604;2023-03-07T10:28:21;8.10;;;5.82;;
31282;SDS011;17915;52.540;13.604;2023-03-07T10:30:50;6.78;;;6.05;;
31282;SDS011;17915;52.540;13.604;2023-03-07T10:33:18;7.70;;;6.28;;
31282;SDS011;17915;52.540;13.604;2023-03-07T10:35:47;9.25;;;5.57;;
31282;SDS011;17915;52.540;13.604;2023-03-07T10:38:32;7.00;;;5.93;;
31282;SDS011;17915;52.540;13.604;2023-03-07T10:41:02;9.13;;;5.28;;
31282;SDS011;17915;52.540;13.604;2023-03-07T10:43:33;6.75;;;4.55;;
31282;SDS011;17915;52.540;13.604;2023-03-07T10:46:08;5.97;;;4.30;;
31282;SDS011;17915;52.540;13.604;2023-03-07T10:51:42;8.05;;;4.45;;
31282;SDS011;17915;52.540;13.604;2023-03-07T10:54:34;3.55;;;3.25;;
31282;SDS011;17915;52.540;13.604;2023-03-07T10:59:31;2.70;;;2.50;;
31282;SDS011;17915;52.540;13.604;2023-03-07T11:01:57;5.45;;;2.40;;
31282;SDS011;17915;52.540;13.604;2023-03-07T11:04:24;2.42;;;2.22;;
31282;SDS011;17915;52.540;13.604;2023-03-07T11:06:56;4.75;;;2.58;;
31282;SDS011;17915;52.540;13.604;2023-03-07T11:09:33;3.55;;;1.65;;
31282;SDS011;17915;52.540;13.604;2023-03-07T11:14:46;5.25;;;1.90;;
31282;SDS011;17915;52.540;13.604;2023-03-07T11:17:22;8.00;;;1.55;;
31282;SDS011;17915;52.540;13.604;2023-03-07T11:19:54;3.75;;;2.30;;
31282;SDS011;17915;52.540;13.604;2023-03-07T11:22:26;3.42;;;3.17;;
31282;SDS011;17915;52.540;13.604;2023-03-07T11:24:54;3.97;;;2.72;;
31282;SDS011;17915;52.540;13.604;2023-03-07T11:27:22;4.72;;;4.22;;
31282;SDS011;17915;52.540;13.604;2023-03-07T11:35:26;3.13;;;2.88;;
31282;SDS011;17915;52.540;13.604;2023-03-07T11:46:19;2.38;;;1.92;;
31282;SDS011;17915;52.540;13.604;2023-03-07T11:56:59;3.72;;;2.90;;
31282;SDS011;17915;52.540;13.604;2023-03-07T11:59:44;2.67;;;2.28;;
31282;SDS011;17915;52.540;13.604;2023-03-07T12:02:33;1.95;;;1.85;;
31282;SDS011;17915;52.540;13.604;2023-03-07T12:07:53;1.98;;;1.83;;
31282;SDS011;17915;52.540;13.604;2023-03-07T12:13:26;7.10;;;2.17;;
31282;SDS011;17915;52.540;13.604;2023-03-07T12:24:02;3.22;;;2.92;;
31282;SDS011;17915;52.540;13.604;2023-03-07T12:26:50;3.40;;;1.80;;
31282;SDS011;17915;52.540;13.604;2023-03-07T12:31:52;6.25;;;2.60;;
31282;SDS011;17915;52.540;13.604;2023-03-07T12:34:25;2.95;;;2.38;;
31282;SDS011;17915;52.540;13.604;2023-03-07T12:37:15;2.85;;;2.65;;
31282;SDS011;17915;52.540;13.604;2023-03-07T12:45:02;1.90;;;1.80;;
31282;SDS011;17915;52.540;13.604;2023-03-07T12:55:38;4.32;;;2.42;;
31282;SDS011;17915;52.540;13.604;2023-03-07T12:58:16;2.22;;;2.03;;
31282;SDS011;17915;52.540;13.604;2023-03-07T13:00:47;3.45;;;1.80;;
31282;SDS011;17915;52.540;13.604;2023-03-07T13:03:18;2.15;;;1.90;;
31282;SDS011;17915;52.540;13.604;2023-03-07T13:05:48;4.43;;;1.40;;
31282;SDS011;17915;52.540;13.604;2023-03-07T13:08:16;3.03;;;2.08;;
31282;SDS011;17915;52.540;13.604;2023-03-07T13:10:46;4.35;;;1.60;;
31282;SDS011;17915;52.540;13.604;2023-03-07T13:13:46;3.97;;;1.63;;
31282;SDS011;17915;52.540;13.604;2023-03-07T13:16:30;3.00;;;1.85;;
31282;SDS011;17915;52.540;13.604;2023-03-07T13:21:57;7.78;;;2.05;;
31282;SDS011;17915;52.540;13.604;2023-03-07T13:24:36;3.67;;;1.60;;
31282;SDS011;17915;52.540;13.604;2023-03-07T13:27:11;7.07;;;3.15;;
31282;SDS011;17915;52.540;13.604;2023-03-07T13:42:58;6.57;;;1.60;;
31282;SDS011;17915;52.540;13.604;2023-03-07T13:53:35;1.87;;;1.70;;
31282;SDS011;17915;52.540;13.604;2023-03-07T14:07:20;2.20;;;1.65;;
31282;SDS011;17915;52.540;13.604;2023-03-07T14:09:50;1.50;;;1.40;;
31282;SDS011;17915;52.540;13.604;2023-03-07T14:12:25;2.80;;;1.63;;
31282;SDS011;17915;52.540;13.604;2023-03-07T14:25:46;1.80;;;1.70;;
31282;SDS011;17915;52.540;13.604;2023-03-07T14:28:23;1.70;;;1.40;;
31282;SDS011;17915;52.540;13.604;2023-03-07T14:30:58;1.73;;;1.60;;
31282;SDS011;17915;52.540;13.604;2023-03-07T14:33:31;1.92;;;1.65;;
31282;SDS011;17915;52.540;13.604;2023-03-07T14:35:58;1.92;;;1.30;;
31282;SDS011;17915;52.540;13.604;2023-03-07T14:38:24;3.65;;;1.65;;
31282;SDS011;17915;52.540;13.604;2023-03-07T14:46:27;1.67;;;1.58;;
31282;SDS011;17915;52.540;13.604;2023-03-07T14:51:27;5.63;;;1.60;;
31282;SDS011;17915;52.540;13.604;2023-03-07T14:53:54;2.25;;;2.15;;
31282;SDS011;17915;52.540;13.604;2023-03-07T14:56:27;4.38;;;1.85;;
31282;SDS011;17915;52.540;13.604;2023-03-07T14:58:55;2.47;;;1.55;;
31282;SDS011;17915;52.540;13.604;2023-03-07T15:01:22;2.08;;;1.98;;
31282;SDS011;17915;52.540;13.604;2023-03-07T15:03:48;1.43;;;1.33;;
31282;SDS011;17915;52.540;13.604;2023-03-07T15:06:16;1.48;;;1.38;;
31282;SDS011;17915;52.540;13.604;2023-03-07T15:08:44;1.60;;;1.58;;
31282;SDS011;17915;52.540;13.604;2023-03-07T15:16:08;1.50;;;1.40;;
31282;SDS011;17915;52.540;13.604;2023-03-07T15:18:37;1.52;;;1.40;;
31282;SDS011;17915;52.540;13.604;2023-03-07T15:21:05;4.88;;;1.70;;
31282;SDS011;17915;52.540;13.604;2023-03-07T15:23:32;2.38;;;1.73;;
31282;SDS011;17915;52.540;13.604;2023-03-07T15:26:01;2.30;;;1.97;;
31282;SDS011;17915;52.540;13.604;2023-03-07T15:28:39;7.95;;;3.17;;
31282;SDS011;17915;52.540;13.604;2023-03-07T15:31:05;1.63;;;1.52;;
31282;SDS011;17915;52.540;13.604;2023-03-07T15:33:32;6.00;;;2.05;;
31282;SDS011;17915;52.540;13.604;2023-03-07T15:36:06;2.55;;;1.80;;
31282;SDS011;17915;52.540;13.604;2023-03-07T15:41:27;1.63;;;1.52;;
31282;SDS011;17915;52.540;13.604;2023-03-07T15:44:14;5.00;;;2.10;;
31282;SDS011;17915;52.540;13.604;2023-03-07T15:46:42;2.42;;;1.85;;
31282;SDS011;17915;52.540;13.604;2023-03-07T15:49:29;6.43;;;2.65;;
31282;SDS011;17915;52.540;13.604;2023-03-07T15:52:05;3.10;;;1.95;;
31282;SDS011;17915;52.540;13.604;2023-03-07T15:56:56;2.30;;;2.10;;
31282;SDS011;17915;52.540;13.604;2023-03-07T16:04:55;4.32;;;2.00;;
31282;SDS011;17915;52.540;13.604;2023-03-07T16:07:21;3.85;;;2.65;;
31282;SDS011;17915;52.540;13.604;2023-03-07T16:09:47;4.23;;;1.97;;
31282;SDS011;17915;52.540;13.604;2023-03-07T16:12:13;2.00;;;1.90;;
31282;SDS011;17915;52.540;13.604;2023-03-07T16:14:40;2.75;;;2.10;;
31282;SDS011;17915;52.540;13.604;2023-03-07T16:17:12;1.97;;;1.87;;
31282;SDS011;17915;52.540;13.604;2023-03-07T16:19:41;2.27;;;1.83;;
31282;SDS011;17915;52.540;13.604;2023-03-07T16:22:12;11.90;;;2.37;;
31282;SDS011;17915;52.540;13.604;2023-03-07T16:24:39;2.40;;;2.20;;
31282;SDS011;17915;52.540;13.604;2023-03-07T16:27:04;3.73;;;3.00;;
31282;SDS011;17915;52.540;13.604;2023-03-07T16:29:30;4.27;;;2.07;;
31282;SDS011;17915;52.540;13.604;2023-03-07T16:31:55;5.93;;;2.43;;
31282;SDS011;17915;52.540;13.604;2023-03-07T16:34:21;2.83;;;2.27;;
31282;SDS011;17915;52.540;13.604;2023-03-07T16:36:47;4.85;;;2.47;;
31282;SDS011;17915;52.540;13.604;2023-03-07T16:39:12;4.30;;;2.57;;
31282;SDS011;17915;52.540;13.604;2023-03-07T16:41:41;3.47;;;2.15;;
31282;SDS011;17915;52.540;13.604;2023-03-07T16:44:13;6.40;;;2.40;;
31282;SDS011;17915;52.540;13.604;2023-03-07T16:46:40;7.88;;;3.78;;
31282;SDS011;17915;52.540;13.604;2023-03-07T16:49:05;3.03;;;2.20;;
31282;SDS011;17915;52.540;13.604;2023-03-07T16:51:30;2.33;;;2.13;;
31282;SDS011;17915;52.540;13.604;2023-03-07T16:53:56;6.97;;;3.00;;
31282;SDS011;17915;52.540;13.604;2023-03-07T17:01:15;4.47;;;2.63;;
31282;SDS011;17915;52.540;13.604;2023-03-07T17:03:40;3.97;;;2.37;;
31282;SDS011;17915;52.540;13.604;2023-03-07T17:06:08;3.07;;;2.73;;
31282;SDS011;17915;52.540;13.604;2023-03-07T17:08:36;3.63;;;2.45;;
31282;SDS011;17915;52.540;13.604;2023-03-07T17:11:02;4.60;;;2.67;;